Pagrindinis puslapis
METAR-TAF:

METAR-TAF

Oro uostai :

Lakselv, Norvegija

platuma: 70-04N, ilguma: 024-59E, Aukštis: 0 m

Dabartinis oras

Ataskaita buvo paskelbta 12 minutes, ne 11:20 UTC
Vėjas 11 kt iš Vakarų/Šiaurės Vakarų
Temperatūra 14°C
Drėgmė 67%
Slėgis 1014 hPa
Matomumas 10 km arba daugiau
Išsisklaidę debesys ne aukštis 3000 ft
Su prošvaistėmis ne aukštis 5100 ft

METAR: ENNA 221120Z 29011KT 9999 SCT030 BKN051 14/08 Q1014 RMK WIND 1800FT 30018KT

Laikas: 13:32 (11:32 UTC)

Prognozė

Prognozė galioja nuo 22 metu 06 UTC su 23 metu 06 UTC
Vėjas 8 kt iš Pietų
Matomumas 10 km arba daugiau
Mažai debesys ne aukštis 1500 ft
Su prošvaistėmis ne aukštis 3000 ft
Tapsmas
nuo 22 metu 08 UTC su 22 metu 11 UTC
Vėjas 10 kt iš Šiaurės/Šiaurės Vakarų
Laikinai
nuo 22 metu 09 UTC su 22 metu 18 UTC
Vėjas 15 kt iš Šiaurės Vakarų su gūsio iki 25 kt

TAF: ENNA 2206/2306 18008KT 9999 FEW015 BKN030 BECMG 2208/2211 34010KT TEMPO 2209/2218 31015G25KT

Orai ataskaitas ir orų prognozės (METAR, TAF).

turimą stotys yra geltonos ir raudonos taškus žemėlapyje.

Perkelti pele per norėdami pamatyti stoties vardą.

Tada spustelėkite, norėdami matyti oro stebėjimo ir prognozės.

Norėdami pakeisti žemėlapį: spustelėkite ant žalios mygtukų su juodo kryžiaus žemyn,; žalią mygtuką su brūkšneliu, jei norite nutolinti; arba žalių rodyklių gretimoms žemėlapius.


METAR-TAF: